createdAt,value
2018-10-01T00:01:25.426Z,96982.48
2018-10-01T00:03:53.075Z,96987.39
2018-10-01T00:06:20.738Z,96981.91
2018-10-01T00:08:48.358Z,96982.81
2018-10-01T00:11:15.982Z,96979.88
2018-10-01T00:13:43.621Z,96979.33
2018-10-01T00:16:11.246Z,96986.59
2018-10-01T00:18:38.909Z,96977.44
2018-10-01T00:21:12.267Z,96976.64
2018-10-01T00:23:39.917Z,96968.69
2018-10-01T00:26:07.549Z,96966.22
2018-10-01T00:28:35.420Z,96969.23
2018-10-01T00:31:03.057Z,96955.80
2018-10-01T00:33:30.714Z,96953.91
2018-10-01T00:35:58.332Z,96954.45
2018-10-01T00:38:26.012Z,96948.28
2018-10-01T00:40:53.644Z,96943.92
2018-10-01T00:43:21.305Z,96942.03
2018-10-01T00:45:48.924Z,96931.28
2018-10-01T00:48:16.557Z,96938.11
2018-10-01T00:50:44.182Z,96927.80
2018-10-01T00:53:11.798Z,96931.28
2018-10-01T00:55:39.421Z,96928.92
2018-10-01T00:58:07.167Z,96935.97
2018-10-01T01:00:34.956Z,96940.80
2018-10-01T01:03:02.618Z,96935.97
2018-10-01T01:05:30.261Z,96935.75
2018-10-01T01:07:57.883Z,96936.84
2018-10-01T01:10:25.631Z,96940.33
2018-10-01T01:12:53.351Z,96946.25
2018-10-01T01:15:21.059Z,96948.94
2018-10-01T01:17:48.699Z,96945.48
2018-10-01T01:20:16.333Z,96944.14
2018-10-01T01:22:43.970Z,96948.17
2018-10-01T01:25:11.585Z,96944.91
2018-10-01T01:27:39.235Z,96943.56
2018-10-01T01:30:06.960Z,96945.70
2018-10-01T01:32:34.641Z,96955.11
2018-10-01T01:35:02.257Z,96952.75
2018-10-01T01:37:29.893Z,96958.92
2018-10-01T01:39:57.517Z,96950.94
2018-10-01T01:42:25.166Z,96958.92
2018-10-01T01:44:52.804Z,96946.58
2018-10-01T01:47:20.473Z,96948.72
2018-10-01T01:49:48.099Z,96949.05
2018-10-01T01:52:15.734Z,96945.56
2018-10-01T01:54:43.361Z,96938.63
2018-10-01T01:57:11.001Z,96934.59
2018-10-01T01:59:38.665Z,96936.48
2018-10-01T02:02:06.299Z,96923.23
2018-10-01T02:04:33.921Z,96939.50
2018-10-01T02:07:01.573Z,96930.89
2018-10-01T02:09:29.192Z,96926.53
2018-10-01T02:11:56.930Z,96935.14
2018-10-01T02:14:24.570Z,96926.53
2018-10-01T02:16:52.195Z,96930.09
2018-10-01T02:19:19.816Z,96924.50
2018-10-01T02:21:47.446Z,96915.31
2018-10-01T02:24:15.104Z,96906.23
2018-10-01T02:26:42.758Z,96896.50
2018-10-01T02:29:10.459Z,96894.94
2018-10-01T02:31:38.094Z,96897.84
2018-10-01T02:34:05.739Z,96904.02
2018-10-01T02:36:33.373Z,96905.36
2018-10-01T02:39:00.996Z,96907.58
2018-10-01T02:41:28.642Z,96915.89
2018-10-01T02:43:56.260Z,96920.00
2018-10-01T02:46:23.949Z,96913.28
2018-10-01T02:48:51.583Z,96913.28
2018-10-01T02:51:19.214Z,96914.08
2018-10-01T02:53:52.185Z,96915.20
2018-10-01T02:56:19.814Z,96908.92
2018-10-01T02:58:47.441Z,96910.59
2018-10-01T03:01:15.069Z,96912.84
2018-10-01T03:03:42.730Z,96910.38
2018-10-01T03:06:10.363Z,96910.38
2018-10-01T03:08:38.010Z,96900.98
2018-10-01T03:11:05.633Z,96897.16
2018-10-01T03:13:33.279Z,96892.36
2018-10-01T03:16:00.940Z,96898.84
2018-10-01T03:18:28.563Z,96896.39
2018-10-01T03:20:56.194Z,96902.10
2018-10-01T03:23:23.836Z,96899.30
2018-10-01T03:25:51.502Z,96899.41
2018-10-01T03:28:19.154Z,96898.84
2018-10-01T03:30:46.830Z,96895.38
2018-10-01T03:33:14.505Z,96898.06
2018-10-01T03:35:42.140Z,96892.70
2018-10-01T03:38:09.775Z,96888.20
2018-10-01T03:40:37.406Z,96886.06
2018-10-01T03:43:05.057Z,96880.93
2018-10-01T03:45:32.691Z,96879.92
2018-10-01T03:48:00.317Z,96885.30
2018-10-01T03:50:27.954Z,96900.83
2018-10-01T03:52:55.577Z,96898.94
2018-10-01T03:55:23.226Z,96895.71
2018-10-01T03:57:50.871Z,96890.88
2018-10-01T04:00:18.558Z,96892.23
2018-10-01T04:02:46.276Z,96893.57
2018-10-01T04:05:13.906Z,96888.86
2018-10-01T04:07:41.772Z,96895.82
2018-10-01T04:10:09.392Z,96898.73
2018-10-01T04:12:37.014Z,96901.19
2018-10-01T04:15:04.632Z,96894.23
2018-10-01T04:17:32.274Z,96905.77
2018-10-01T04:19:59.905Z,96899.85
2018-10-01T04:22:36.546Z,96902.07
2018-10-01T04:25:04.570Z,96899.93
2018-10-01T04:27:32.309Z,96905.55
2018-10-01T04:29:59.942Z,96903.63
2018-10-01T04:32:27.572Z,96902.07
2018-10-01T04:34:55.234Z,96907.66
2018-10-01T04:37:22.856Z,96904.20
2018-10-01T04:39:50.495Z,96908.56
2018-10-01T04:42:18.117Z,96908.79
2018-10-01T04:44:45.767Z,96909.33
2018-10-01T04:47:13.393Z,96918.19
2018-10-01T04:49:41.022Z,96915.83
2018-10-01T04:52:08.650Z,96923.09
2018-10-01T04:54:36.269Z,96923.89
2018-10-01T04:57:04.012Z,96924.44
2018-10-01T04:59:31.643Z,96926.36
2018-10-01T05:01:59.291Z,96926.36
2018-10-01T05:04:26.925Z,96927.45
2018-10-01T05:06:54.557Z,96925.56
2018-10-01T05:09:22.285Z,96921.75
2018-10-01T05:11:49.950Z,96928.80
2018-10-01T05:14:17.618Z,96927.78
2018-10-01T05:16:45.317Z,96930.94
2018-10-01T05:19:12.978Z,96926.36
2018-10-01T05:21:40.647Z,96924.77
2018-10-01T05:24:08.281Z,96930.47
2018-10-01T05:26:35.939Z,96926.69
2018-10-01T05:29:03.681Z,96924.66
2018-10-01T05:31:31.309Z,96931.05
2018-10-01T05:33:58.966Z,96933.48
2018-10-01T05:36:26.594Z,96937.98
2018-10-01T05:38:54.225Z,96937.84
2018-10-01T05:41:21.865Z,96934.28
2018-10-01T05:43:49.494Z,96930.58
2018-10-01T05:46:17.141Z,96927.67
2018-10-01T05:48:44.848Z,96930.25
2018-10-01T05:51:12.485Z,96929.78
2018-10-01T05:53:40.128Z,96937.30
2018-10-01T05:56:07.747Z,96941.33
2018-10-01T05:58:35.384Z,96941.65
2018-10-01T06:01:03.038Z,96951.05
2018-10-01T06:03:30.734Z,96951.05
2018-10-01T06:05:58.372Z,96955.08
2018-10-01T06:08:26.050Z,96955.88
2018-10-01T06:10:53.689Z,96954.53
2018-10-01T06:13:21.300Z,96960.13
2018-10-01T06:15:48.949Z,96963.14
2018-10-01T06:18:16.607Z,96965.03
2018-10-01T06:20:44.209Z,96964.81
2018-10-01T06:23:11.833Z,96965.36
2018-10-01T06:25:39.453Z,96967.50
2018-10-01T06:28:07.085Z,96968.95
2018-10-01T06:30:34.724Z,96971.06
2018-10-01T06:33:02.590Z,96980.45
2018-10-01T06:35:30.254Z,96981.36
2018-10-01T06:37:57.903Z,96988.30
2018-10-01T06:40:25.538Z,97000.38
2018-10-01T06:42:53.161Z,97005.28
2018-10-01T06:45:20.829Z,97005.53
2018-10-01T06:47:48.447Z,97003.62
2018-10-01T06:50:16.118Z,97004.19
2018-10-01T06:52:43.796Z,97003.17
2018-10-01T06:55:11.443Z,97001.03
2018-10-01T06:57:39.083Z,97007.20
2018-10-01T07:00:07.177Z,97012.25
2018-10-01T07:02:34.827Z,97014.14
2018-10-01T07:05:02.456Z,97014.47
2018-10-01T07:07:30.176Z,97026.23
2018-10-01T07:09:57.810Z,97021.73
2018-10-01T07:12:25.434Z,97021.50
2018-10-01T07:14:53.088Z,97021.73
2018-10-01T07:17:20.845Z,97023.07
2018-10-01T07:19:48.394Z,97029.78
2018-10-01T07:22:16.031Z,97031.13
2018-10-01T07:24:43.666Z,97037.84
2018-10-01T07:27:11.357Z,97040.85
2018-10-01T07:29:39.035Z,97037.41
2018-10-01T07:32:06.661Z,97038.97
2018-10-01T07:34:34.297Z,97044.88
2018-10-01T07:37:02.044Z,97047.34
2018-10-01T07:39:29.681Z,97053.20
2018-10-01T07:41:57.313Z,97056.97
2018-10-01T07:44:24.945Z,97056.65
2018-10-01T07:46:52.581Z,97054.28
2018-10-01T07:49:20.246Z,97063.94
2018-10-01T07:51:47.875Z,97063.94
2018-10-01T07:54:15.556Z,97065.83
2018-10-01T07:56:43.190Z,97072.00
2018-10-01T07:59:10.819Z,97077.05
2018-10-01T08:01:38.472Z,97082.74
2018-10-01T08:04:06.190Z,97078.14
2018-10-01T08:06:33.863Z,97081.63
2018-10-01T08:09:01.533Z,97084.20
2018-10-01T08:11:29.231Z,97086.67
2018-10-01T08:13:56.893Z,97089.83
2018-10-01T08:16:24.544Z,97088.02
2018-10-01T08:18:52.174Z,97093.86
2018-10-01T08:21:19.808Z,97101.92
2018-10-01T08:23:47.888Z,97099.94
2018-10-01T08:26:15.629Z,97110.03
2018-10-01T08:28:43.215Z,97108.37
2018-10-01T08:31:10.844Z,97113.86
2018-10-01T08:33:38.496Z,97110.85
2018-10-01T08:36:06.505Z,97112.52
2018-10-01T08:38:34.230Z,97111.65
2018-10-01T08:41:01.841Z,97124.54
2018-10-01T08:43:29.466Z,97117.14
2018-10-01T08:45:57.106Z,97115.41
2018-10-01T08:48:26.098Z,97122.24
2018-10-01T08:50:58.916Z,97124.28
2018-10-01T08:53:37.932Z,97120.95
2018-10-01T08:56:05.539Z,97130.61
2018-10-01T08:58:33.159Z,97120.50
2018-10-01T09:01:00.853Z,97127.92
2018-10-01T09:03:28.483Z,97122.94
2018-10-01T09:05:56.127Z,97134.96
2018-10-01T09:08:23.855Z,97130.13
2018-10-01T09:10:51.444Z,97134.16
2018-10-01T09:13:19.080Z,97140.19
2018-10-01T09:15:46.702Z,97133.84
2018-10-01T09:18:14.333Z,97128.08
2018-10-01T09:20:42.007Z,97132.66
2018-10-01T09:23:09.747Z,97133.91
2018-10-01T09:25:37.384Z,97130.56
2018-10-01T09:28:05.098Z,97128.67
2018-10-01T09:30:32.734Z,97128.79
2018-10-01T09:33:00.406Z,97133.72
2018-10-01T09:35:28.082Z,97135.51
2018-10-01T09:37:55.742Z,97136.53
2018-10-01T09:40:23.379Z,97146.89
2018-10-01T09:42:51.042Z,97153.61
2018-10-01T09:45:18.689Z,97150.34
2018-10-01T09:47:46.338Z,97154.62
2018-10-01T09:50:14.033Z,97159.42
2018-10-01T09:52:41.629Z,97158.66
2018-10-01T09:55:09.284Z,97160.45
2018-10-01T09:57:36.896Z,97156.52
2018-10-01T10:00:04.549Z,97156.98
2018-10-01T10:02:32.203Z,97163.14
2018-10-01T10:04:59.850Z,97163.94
2018-10-01T10:07:27.490Z,97164.73
2018-10-01T10:09:55.121Z,97169.53
2018-10-01T10:12:22.770Z,97169.16
2018-10-01T10:14:50.420Z,97167.38
2018-10-01T10:17:18.080Z,97167.50
2018-10-01T10:19:45.697Z,97168.44
2018-10-01T10:22:13.387Z,97168.12
2018-10-01T10:24:41.087Z,97179.31
2018-10-01T10:27:08.790Z,97177.64
2018-10-01T10:29:36.399Z,97180.91
2018-10-01T10:32:04.051Z,97176.36
2018-10-01T10:34:31.745Z,97181.42
2018-10-01T10:36:59.380Z,97186.25
2018-10-01T10:39:27.057Z,97177.85
2018-10-01T10:41:54.727Z,97177.53
2018-10-01T10:44:22.376Z,97179.09
2018-10-01T10:46:50.025Z,97095.75
2018-10-01T10:49:17.650Z,97184.58
2018-10-01T10:51:45.264Z,97188.28
2018-10-01T10:54:12.892Z,97192.97
2018-10-01T10:56:40.613Z,97190.68
2018-10-01T10:59:08.210Z,97187.45
2018-10-01T11:01:35.835Z,97189.01
2018-10-01T11:04:03.500Z,97191.48
2018-10-01T11:06:31.126Z,97189.34
2018-10-01T11:08:58.753Z,97189.81
2018-10-01T11:11:26.377Z,97189.27
2018-10-01T11:13:54.071Z,97193.73
2018-10-01T11:16:21.661Z,97205.52
2018-10-01T11:18:49.423Z,97200.14
2018-10-01T11:21:17.057Z,97207.66
2018-10-01T11:23:44.625Z,97204.42
2018-10-01T11:26:12.254Z,97210.67
2018-10-01T11:28:39.912Z,97197.55
2018-10-01T11:31:07.715Z,97209.44
2018-10-01T11:33:35.334Z,97218.84
2018-10-01T11:36:02.989Z,97214.70
2018-10-01T11:38:30.628Z,97212.56
2018-10-01T11:40:58.261Z,97217.50
2018-10-01T11:43:25.908Z,97215.58
2018-10-01T11:45:53.532Z,97225.14
2018-10-01T11:48:21.166Z,97222.12
2018-10-01T11:50:48.802Z,97224.67
2018-10-01T11:53:16.441Z,97228.16
2018-10-01T11:55:44.071Z,97222.55
2018-10-01T11:58:11.706Z,97221.76
2018-10-01T12:00:39.392Z,97226.11
2018-10-01T12:03:07.054Z,97230.62
2018-10-01T12:05:34.695Z,97233.86
2018-10-01T12:08:02.356Z,97231.72
2018-10-01T12:10:30.070Z,97229.28
2018-10-01T12:12:57.765Z,97232.30
2018-10-01T12:15:25.492Z,97229.34
2018-10-01T12:17:53.090Z,97238.32
2018-10-01T12:20:20.728Z,97245.27
2018-10-01T12:22:48.373Z,97247.16
2018-10-01T12:25:16.026Z,97239.09
2018-10-01T12:27:43.716Z,97241.23
2018-10-01T12:30:11.318Z,97239.34
2018-10-01T12:32:38.952Z,97238.54
2018-10-01T12:35:06.653Z,97244.72
2018-10-01T12:37:34.373Z,97251.44
2018-10-01T12:40:02.025Z,97253.88
2018-10-01T12:42:29.734Z,97254.67
2018-10-01T12:44:57.570Z,97258.94
2018-10-01T12:47:25.141Z,97265.43
2018-10-01T12:49:52.769Z,97267.00
2018-10-01T12:52:20.404Z,97270.27
2018-10-01T12:54:48.066Z,97268.02
2018-10-01T12:57:15.782Z,97269.84
2018-10-01T12:59:43.510Z,97271.19
2018-10-01T13:02:11.049Z,97263.98
2018-10-01T13:04:38.679Z,97272.05
2018-10-01T13:07:06.318Z,97275.00
2018-10-01T13:09:33.973Z,97276.67
2018-10-01T13:12:01.634Z,97280.70
2018-10-01T13:14:29.322Z,97285.28
2018-10-01T13:16:56.996Z,97282.81
2018-10-01T13:19:24.654Z,97281.72
2018-10-01T13:21:52.282Z,97281.95
2018-10-01T13:24:20.036Z,97288.13
2018-10-01T13:26:47.590Z,97287.33
2018-10-01T13:29:15.224Z,97281.95
2018-10-01T13:31:42.863Z,97282.74
2018-10-01T13:34:10.490Z,97287.55
2018-10-01T13:36:38.246Z,97294.27
2018-10-01T13:39:07.078Z,97280.28
2018-10-01T13:41:34.723Z,97279.16
2018-10-01T13:44:02.389Z,97286.52
2018-10-01T13:46:30.042Z,97289.69
2018-10-01T13:48:57.699Z,97301.00
2018-10-01T13:51:25.316Z,97295.49
2018-10-01T13:53:52.958Z,97302.77
2018-10-01T13:56:20.601Z,97300.07
2018-10-01T13:58:48.237Z,97299.59
2018-10-01T14:01:15.918Z,97304.75
2018-10-01T14:03:43.596Z,97306.96
2018-10-01T14:06:11.255Z,97308.88
2018-10-01T14:08:38.883Z,97306.52
2018-10-01T14:11:06.552Z,97308.08
2018-10-01T14:13:34.224Z,97310.87
2018-10-01T14:16:01.853Z,97312.44
2018-10-01T14:18:29.491Z,97321.15
2018-10-01T14:20:57.133Z,97323.03
2018-10-01T14:23:25.301Z,97319.90
2018-10-01T14:25:53.016Z,97322.91
2018-10-01T14:28:20.678Z,97322.11
2018-10-01T14:30:48.399Z,97327.81
2018-10-01T14:33:15.985Z,97335.08
2018-10-01T14:35:43.617Z,97343.46
2018-10-01T14:38:11.274Z,97342.38
2018-10-01T14:40:38.911Z,97337.86
2018-10-01T14:43:06.575Z,97341.58
2018-10-01T14:45:34.200Z,97347.50
2018-10-01T14:48:01.888Z,97346.63
2018-10-01T14:50:29.509Z,97352.55
2018-10-01T14:52:57.155Z,97352.80
2018-10-01T14:55:24.806Z,97357.29
2018-10-01T14:57:52.432Z,97360.78
2018-10-01T15:00:20.135Z,97368.36
2018-10-01T15:02:47.723Z,97372.08
2018-10-01T15:05:15.362Z,97376.43
2018-10-01T15:07:43.015Z,97379.44
2018-10-01T15:10:10.664Z,97378.73
2018-10-01T15:12:38.311Z,97380.33
2018-10-01T15:15:05.965Z,97380.88
2018-10-01T15:17:33.597Z,97398.90
2018-10-01T15:20:01.240Z,97397.55
2018-10-01T15:22:28.993Z,97396.78
2018-10-01T15:24:56.714Z,97406.73
2018-10-01T15:27:24.345Z,97408.63
2018-10-01T15:29:51.985Z,97407.28
2018-10-01T15:32:19.613Z,97412.17
2018-10-01T15:34:47.249Z,97406.80
2018-10-01T15:37:14.903Z,97412.98
2018-10-01T15:39:42.575Z,97421.10
2018-10-01T15:42:10.267Z,97415.28
2018-10-01T15:44:37.870Z,97427.69
2018-10-01T15:47:05.528Z,97428.72
2018-10-01T15:49:33.164Z,97427.69
2018-10-01T15:52:00.823Z,97428.78
2018-10-01T15:54:28.461Z,97432.58
2018-10-01T15:56:56.077Z,97435.50
2018-10-01T15:59:23.704Z,97439.84
2018-10-01T16:01:51.547Z,97443.88
2018-10-01T16:04:18.972Z,97448.63
2018-10-01T16:06:46.610Z,97448.17
2018-10-01T16:09:14.257Z,97446.25
2018-10-01T16:11:41.879Z,97445.80
2018-10-01T16:14:09.513Z,97451.94
2018-10-01T16:16:37.225Z,97451.08
2018-10-01T16:19:04.903Z,97446.02
2018-10-01T16:21:32.586Z,97449.25
2018-10-01T16:26:33.346Z,97459.46
2018-10-01T16:29:00.977Z,97458.92
2018-10-01T16:31:28.661Z,97460.33
2018-10-01T16:33:56.312Z,97464.36
2018-10-01T16:36:23.944Z,97461.44
2018-10-01T16:38:51.627Z,97464.61
2018-10-01T16:41:19.301Z,97474.02
2018-10-01T16:43:46.996Z,97469.67
2018-10-01T16:46:14.690Z,97469.73
2018-10-01T16:48:42.331Z,97478.05
2018-10-01T16:51:10.094Z,97485.31
2018-10-01T16:53:37.717Z,97484.45
2018-10-01T16:56:05.403Z,97493.92
2018-10-01T16:58:33.038Z,97492.90
2018-10-01T17:01:00.679Z,97499.39
2018-10-01T17:03:28.326Z,97501.98
2018-10-01T17:05:57.813Z,97504.94
2018-10-01T17:08:26.147Z,97508.87
2018-10-01T17:10:53.889Z,97510.00
2018-10-01T17:13:21.887Z,97513.31
2018-10-01T17:15:49.971Z,97514.97
2018-10-01T17:18:17.605Z,97515.06
2018-10-01T17:20:45.221Z,97513.69
2018-10-01T17:23:12.886Z,97510.05
2018-10-01T17:25:40.517Z,97517.26
2018-10-01T17:28:08.196Z,97520.27
2018-10-01T17:30:36.154Z,97519.78
2018-10-01T17:33:03.829Z,97521.61
2018-10-01T17:35:31.458Z,97521.06
2018-10-01T17:37:59.073Z,97525.87
2018-10-01T17:40:26.722Z,97528.88
2018-10-01T17:42:54.364Z,97528.88
2018-10-01T17:45:21.991Z,97536.70
2018-10-01T17:47:49.613Z,97536.63
2018-10-01T17:50:17.338Z,97543.34
2018-10-01T17:52:44.979Z,97540.66
2018-10-01T17:55:12.598Z,97550.95
2018-10-01T17:57:40.254Z,97564.08
2018-10-01T18:00:08.097Z,97587.47
2018-10-01T18:02:35.714Z,97597.42
2018-10-01T18:05:03.338Z,97579.63
2018-10-01T18:07:30.981Z,97575.69
2018-10-01T18:09:58.613Z,97577.11
2018-10-01T18:12:26.250Z,97585.09
2018-10-01T18:14:53.890Z,97588.27
2018-10-01T18:17:21.508Z,97564.76
2018-10-01T18:19:49.141Z,97567.39
2018-10-01T18:22:16.813Z,97561.44
2018-10-01T18:24:44.456Z,97569.28
2018-10-01T18:27:12.103Z,97577.66
2018-10-01T18:29:39.802Z,97581.91
2018-10-01T18:32:07.589Z,97578.77
2018-10-01T18:34:35.323Z,97572.05
2018-10-01T18:37:02.991Z,97575.82
2018-10-01T18:39:31.176Z,97581.45
2018-10-01T18:41:58.913Z,97584.45
2018-10-01T18:44:26.451Z,97587.45
2018-10-01T18:46:54.193Z,97591.95
2018-10-01T18:49:21.833Z,97587.14
2018-10-01T18:51:49.485Z,97593.61
2018-10-01T18:54:17.196Z,97592.27
2018-10-01T18:56:44.766Z,97593.37
2018-10-01T18:59:12.465Z,97596.86
2018-10-01T19:01:40.095Z,97594.72
2018-10-01T19:04:07.735Z,97593.69
2018-10-01T19:06:35.384Z,97597.64
2018-10-01T19:09:03.159Z,97599.86
2018-10-01T19:11:31.098Z,97601.21
2018-10-01T19:13:58.722Z,97591.85
2018-10-01T19:16:26.342Z,97595.26
2018-10-01T19:18:54.005Z,97597.95
2018-10-01T19:21:21.701Z,97598.83
2018-10-01T19:23:49.434Z,97604.44
2018-10-01T19:26:17.104Z,97614.70
2018-10-01T19:28:44.732Z,97613.84
2018-10-01T19:31:12.378Z,97620.65
2018-10-01T19:33:40.042Z,97627.68
2018-10-01T19:36:07.703Z,97637.31
2018-10-01T19:38:35.324Z,97640.23
2018-10-01T19:41:02.970Z,97649.64
2018-10-01T19:43:30.682Z,97652.33
2018-10-01T19:45:58.257Z,97660.16
2018-10-01T19:48:25.948Z,97657.97
2018-10-01T19:50:53.667Z,97659.30
2018-10-01T19:53:21.363Z,97660.66
2018-10-01T19:55:49.007Z,97657.78
2018-10-01T19:58:16.645Z,97666.03
2018-10-01T20:00:44.444Z,97665.53
2018-10-01T20:03:12.191Z,97670.11
2018-10-01T20:05:39.869Z,97672.56
2018-10-01T20:08:07.542Z,97671.45
2018-10-01T20:10:35.220Z,97675.25
2018-10-01T20:13:02.991Z,97680.62
2018-10-01T20:15:30.613Z,97677.40
2018-10-01T20:17:58.247Z,97681.73
2018-10-01T20:20:25.897Z,97683.55
2018-10-01T20:22:53.593Z,97686.00
2018-10-01T20:25:21.241Z,97686.00
2018-10-01T20:27:48.989Z,97692.18
2018-10-01T20:30:16.553Z,97690.58
2018-10-01T20:32:44.199Z,97685.46
2018-10-01T20:35:11.991Z,97678.79
2018-10-01T20:37:39.510Z,97689.23
2018-10-01T20:40:07.706Z,97687.66
2018-10-01T20:42:35.358Z,97696.03
2018-10-01T20:45:03.143Z,97697.60
2018-10-01T20:47:30.783Z,97699.02
2018-10-01T20:49:58.438Z,97710.50
2018-10-01T20:52:26.237Z,97704.97
2018-10-01T20:54:53.808Z,97706.86
2018-10-01T20:57:21.508Z,97700.94
2018-10-01T20:59:49.190Z,97701.25
2018-10-01T21:02:16.807Z,97703.67
2018-10-01T21:04:44.468Z,97708.20
2018-10-01T21:07:12.074Z,97706.31
2018-10-01T21:09:39.701Z,97709.31
2018-10-01T21:12:07.325Z,97716.88
2018-10-01T21:14:34.944Z,97716.56
2018-10-01T21:17:02.585Z,97718.45
2018-10-01T21:19:30.234Z,97716.56
2018-10-01T21:21:57.890Z,97715.53
2018-10-01T21:24:25.506Z,97714.73
2018-10-01T21:26:53.116Z,97717.99
2018-10-01T21:29:20.753Z,97722.80
2018-10-01T21:31:48.381Z,97717.42
2018-10-01T21:34:16.154Z,97722.25
2018-10-01T21:36:43.810Z,97725.79
2018-10-01T21:39:15.885Z,97723.98
2018-10-01T21:41:43.543Z,97723.67
2018-10-01T21:44:11.161Z,97719.88
2018-10-01T21:46:38.801Z,97728.48
2018-10-01T21:49:06.436Z,97729.05
2018-10-01T21:51:34.098Z,97726.83
2018-10-01T21:54:01.753Z,97727.39
2018-10-01T21:56:29.377Z,97729.82
2018-10-01T21:58:57.020Z,97732.81
2018-10-01T22:01:29.852Z,97733.62
2018-10-01T22:03:57.590Z,97736.08
2018-10-01T22:06:25.217Z,97743.33
2018-10-01T22:08:52.836Z,97745.70
2018-10-01T22:11:20.465Z,97753.84
2018-10-01T22:13:48.123Z,97754.62
2018-10-01T22:16:15.740Z,97758.91
2018-10-01T22:18:43.370Z,97764.83
2018-10-01T22:21:11.026Z,97759.45
2018-10-01T22:23:38.650Z,97768.63
2018-10-01T22:26:06.326Z,97769.70
2018-10-01T22:28:33.957Z,97772.96
2018-10-01T22:31:01.588Z,97768.93
2018-10-01T22:33:29.226Z,97774.30
2018-10-01T22:35:56.875Z,97773.73
2018-10-01T22:38:24.496Z,97761.95
2018-10-01T22:40:52.125Z,97764.09
2018-10-01T22:43:19.745Z,97766.55
2018-10-01T22:45:47.389Z,97774.05
2018-10-01T22:48:15.113Z,97774.05
2018-10-01T22:50:42.806Z,97769.23
2018-10-01T22:53:10.438Z,97771.92
2018-10-01T22:55:38.071Z,97772.77
2018-10-01T22:58:05.724Z,97777.61
2018-10-01T23:00:33.353Z,97780.83
2018-10-01T23:03:01.017Z,97777.61
2018-10-01T23:05:28.645Z,97782.98
2018-10-01T23:07:56.274Z,97787.01
2018-10-01T23:10:23.920Z,97789.43
2018-10-01T23:12:51.546Z,97801.52
2018-10-01T23:15:19.173Z,97789.13
2018-10-01T23:17:46.798Z,97782.17
2018-10-01T23:20:14.452Z,97785.41
2018-10-01T23:22:42.078Z,97787.01
2018-10-01T23:25:09.700Z,97799.09
2018-10-01T23:27:37.326Z,97800.14
2018-10-01T23:30:04.961Z,97803.36
2018-10-01T23:32:32.596Z,97811.97
2018-10-01T23:35:00.213Z,97816.91
2018-10-01T23:37:27.861Z,97812.58
2018-10-01T23:39:55.510Z,97815.83
2018-10-01T23:42:23.139Z,97822.78
2018-10-01T23:44:50.775Z,97816.91
2018-10-01T23:47:18.384Z,97819.59
2018-10-01T23:49:46.066Z,97824.20
2018-10-01T23:52:13.681Z,97817.48
2018-10-01T23:54:41.353Z,97817.64
2018-10-01T23:57:09.000Z,97820.41
2018-10-01T23:59:36.616Z,97820.70
